sensor_id;sensor_type;location;lat;lon;timestamp;P1;durP1;ratioP1;P2;durP2;ratioP2
68089;SDS011;54880;50.986;6.990;2023-07-29T00:00:25;5.13;;;1.90;;
68089;SDS011;54880;50.986;6.990;2023-07-29T00:02:51;5.32;;;1.70;;
68089;SDS011;54880;50.986;6.990;2023-07-29T00:05:16;5.70;;;2.10;;
68089;SDS011;54880;50.986;6.990;2023-07-29T00:07:42;10.27;;;2.07;;
68089;SDS011;54880;50.986;6.990;2023-07-29T00:10:07;6.03;;;2.40;;
68089;SDS011;54880;50.986;6.990;2023-07-29T00:12:33;6.47;;;2.07;;
68089;SDS011;54880;50.986;6.990;2023-07-29T00:14:58;8.03;;;2.03;;
68089;SDS011;54880;50.986;6.990;2023-07-29T00:17:23;5.03;;;1.90;;
68089;SDS011;54880;50.986;6.990;2023-07-29T00:19:48;6.23;;;1.90;;
68089;SDS011;54880;50.986;6.990;2023-07-29T00:22:14;5.00;;;1.83;;
68089;SDS011;54880;50.986;6.990;2023-07-29T00:24:39;7.00;;;2.00;;
68089;SDS011;54880;50.986;6.990;2023-07-29T00:27:04;5.88;;;1.92;;
68089;SDS011;54880;50.986;6.990;2023-07-29T00:29:30;6.15;;;2.00;;
68089;SDS011;54880;50.986;6.990;2023-07-29T00:31:55;8.10;;;2.13;;
68089;SDS011;54880;50.986;6.990;2023-07-29T00:34:20;7.70;;;2.10;;
68089;SDS011;54880;50.986;6.990;2023-07-29T00:36:45;5.80;;;1.93;;
68089;SDS011;54880;50.986;6.990;2023-07-29T00:39:11;5.77;;;2.30;;
68089;SDS011;54880;50.986;6.990;2023-07-29T00:41:36;9.80;;;2.67;;
68089;SDS011;54880;50.986;6.990;2023-07-29T00:44:02;5.83;;;2.27;;
68089;SDS011;54880;50.986;6.990;2023-07-29T00:46:29;6.32;;;2.28;;
68089;SDS011;54880;50.986;6.990;2023-07-29T00:48:56;8.85;;;2.35;;
68089;SDS011;54880;50.986;6.990;2023-07-29T00:51:22;8.65;;;2.22;;
68089;SDS011;54880;50.986;6.990;2023-07-29T00:53:48;5.47;;;2.20;;
68089;SDS011;54880;50.986;6.990;2023-07-29T00:56:13;5.33;;;2.10;;
68089;SDS011;54880;50.986;6.990;2023-07-29T00:58:38;6.63;;;2.17;;
68089;SDS011;54880;50.986;6.990;2023-07-29T01:01:04;6.60;;;2.30;;
68089;SDS011;54880;50.986;6.990;2023-07-29T01:03:29;9.43;;;2.22;;
68089;SDS011;54880;50.986;6.990;2023-07-29T01:06:05;5.30;;;2.22;;
68089;SDS011;54880;50.986;6.990;2023-07-29T01:08:35;6.13;;;2.13;;
68089;SDS011;54880;50.986;6.990;2023-07-29T01:13:53;7.53;;;2.15;;
68089;SDS011;54880;50.986;6.990;2023-07-29T01:16:24;6.75;;;2.20;;
68089;SDS011;54880;50.986;6.990;2023-07-29T01:18:50;5.38;;;2.20;;
68089;SDS011;54880;50.986;6.990;2023-07-29T01:21:17;5.38;;;2.15;;
68089;SDS011;54880;50.986;6.990;2023-07-29T01:23:43;5.90;;;2.22;;
68089;SDS011;54880;50.986;6.990;2023-07-29T01:26:09;6.33;;;2.40;;
68089;SDS011;54880;50.986;6.990;2023-07-29T01:28:34;6.33;;;2.03;;
68089;SDS011;54880;50.986;6.990;2023-07-29T01:31:04;5.80;;;2.30;;
68089;SDS011;54880;50.986;6.990;2023-07-29T01:33:33;5.85;;;2.15;;
68089;SDS011;54880;50.986;6.990;2023-07-29T01:36:01;6.57;;;2.33;;
68089;SDS011;54880;50.986;6.990;2023-07-29T01:38:28;5.30;;;2.10;;
68089;SDS011;54880;50.986;6.990;2023-07-29T01:40:56;5.57;;;2.40;;
68089;SDS011;54880;50.986;6.990;2023-07-29T01:43:22;9.15;;;2.63;;
68089;SDS011;54880;50.986;6.990;2023-07-29T01:45:52;7.18;;;2.60;;
68089;SDS011;54880;50.986;6.990;2023-07-29T01:48:17;9.90;;;3.20;;
68089;SDS011;54880;50.986;6.990;2023-07-29T01:50:42;8.77;;;2.73;;
68089;SDS011;54880;50.986;6.990;2023-07-29T01:53:08;7.13;;;2.53;;
68089;SDS011;54880;50.986;6.990;2023-07-29T01:55:33;5.20;;;2.22;;
68089;SDS011;54880;50.986;6.990;2023-07-29T01:57:59;9.27;;;3.03;;
68089;SDS011;54880;50.986;6.990;2023-07-29T02:00:24;7.80;;;2.90;;
68089;SDS011;54880;50.986;6.990;2023-07-29T02:02:50;7.70;;;2.90;;
68089;SDS011;54880;50.986;6.990;2023-07-29T02:05:15;6.47;;;2.53;;
68089;SDS011;54880;50.986;6.990;2023-07-29T02:07:40;6.00;;;2.70;;
68089;SDS011;54880;50.986;6.990;2023-07-29T02:10:05;6.93;;;2.27;;
68089;SDS011;54880;50.986;6.990;2023-07-29T02:12:31;7.35;;;2.42;;
68089;SDS011;54880;50.986;6.990;2023-07-29T02:14:56;7.37;;;2.40;;
68089;SDS011;54880;50.986;6.990;2023-07-29T02:17:21;6.50;;;2.70;;
68089;SDS011;54880;50.986;6.990;2023-07-29T02:19:47;7.27;;;2.60;;
68089;SDS011;54880;50.986;6.990;2023-07-29T02:22:16;7.07;;;2.60;;
68089;SDS011;54880;50.986;6.990;2023-07-29T02:24:41;9.45;;;2.97;;
68089;SDS011;54880;50.986;6.990;2023-07-29T02:27:06;7.03;;;2.70;;
68089;SDS011;54880;50.986;6.990;2023-07-29T02:29:32;6.87;;;2.80;;
68089;SDS011;54880;50.986;6.990;2023-07-29T02:31:58;6.43;;;2.67;;
68089;SDS011;54880;50.986;6.990;2023-07-29T02:34:23;7.53;;;2.50;;
68089;SDS011;54880;50.986;6.990;2023-07-29T02:36:49;7.00;;;2.50;;
68089;SDS011;54880;50.986;6.990;2023-07-29T02:39:14;6.27;;;2.80;;
68089;SDS011;54880;50.986;6.990;2023-07-29T02:41:39;6.83;;;2.50;;
68089;SDS011;54880;50.986;6.990;2023-07-29T02:44:05;6.93;;;2.40;;
68089;SDS011;54880;50.986;6.990;2023-07-29T02:46:30;7.30;;;2.55;;
68089;SDS011;54880;50.986;6.990;2023-07-29T02:48:55;6.63;;;2.33;;
68089;SDS011;54880;50.986;6.990;2023-07-29T02:51:21;7.40;;;3.10;;
68089;SDS011;54880;50.986;6.990;2023-07-29T02:53:46;6.37;;;2.40;;
68089;SDS011;54880;50.986;6.990;2023-07-29T02:56:11;9.67;;;2.63;;
68089;SDS011;54880;50.986;6.990;2023-07-29T02:58:37;6.03;;;2.47;;
68089;SDS011;54880;50.986;6.990;2023-07-29T03:01:03;6.00;;;2.22;;
68089;SDS011;54880;50.986;6.990;2023-07-29T03:03:29;6.37;;;2.40;;
68089;SDS011;54880;50.986;6.990;2023-07-29T03:06:01;7.03;;;2.10;;
68089;SDS011;54880;50.986;6.990;2023-07-29T03:08:27;5.20;;;1.90;;
68089;SDS011;54880;50.986;6.990;2023-07-29T03:10:53;5.80;;;1.85;;
68089;SDS011;54880;50.986;6.990;2023-07-29T03:13:18;6.00;;;2.23;;
68089;SDS011;54880;50.986;6.990;2023-07-29T03:15:43;6.15;;;1.48;;
68089;SDS011;54880;50.986;6.990;2023-07-29T03:18:09;8.38;;;2.25;;
68089;SDS011;54880;50.986;6.990;2023-07-29T03:20:34;5.72;;;1.98;;
68089;SDS011;54880;50.986;6.990;2023-07-29T03:22:59;5.85;;;1.80;;
68089;SDS011;54880;50.986;6.990;2023-07-29T03:25:24;5.75;;;1.90;;
68089;SDS011;54880;50.986;6.990;2023-07-29T03:27:50;4.80;;;1.43;;
68089;SDS011;54880;50.986;6.990;2023-07-29T03:30:18;5.40;;;1.80;;
68089;SDS011;54880;50.986;6.990;2023-07-29T03:32:44;7.30;;;2.10;;
68089;SDS011;54880;50.986;6.990;2023-07-29T03:35:11;5.43;;;1.70;;
68089;SDS011;54880;50.986;6.990;2023-07-29T03:37:36;4.90;;;1.57;;
68089;SDS011;54880;50.986;6.990;2023-07-29T03:40:01;4.73;;;1.60;;
68089;SDS011;54880;50.986;6.990;2023-07-29T03:42:28;5.97;;;1.60;;
68089;SDS011;54880;50.986;6.990;2023-07-29T03:44:53;6.90;;;1.60;;
68089;SDS011;54880;50.986;6.990;2023-07-29T03:47:18;4.57;;;1.80;;
68089;SDS011;54880;50.986;6.990;2023-07-29T03:49:55;6.90;;;1.90;;
68089;SDS011;54880;50.986;6.990;2023-07-29T03:52:22;5.65;;;1.70;;
68089;SDS011;54880;50.986;6.990;2023-07-29T03:54:47;4.97;;;1.90;;
68089;SDS011;54880;50.986;6.990;2023-07-29T03:57:12;4.50;;;1.50;;
68089;SDS011;54880;50.986;6.990;2023-07-29T03:59:37;5.40;;;1.80;;
68089;SDS011;54880;50.986;6.990;2023-07-29T04:02:03;6.40;;;2.00;;
68089;SDS011;54880;50.986;6.990;2023-07-29T04:04:29;5.70;;;1.90;;
68089;SDS011;54880;50.986;6.990;2023-07-29T04:06:55;6.30;;;2.10;;
68089;SDS011;54880;50.986;6.990;2023-07-29T04:09:20;5.23;;;1.43;;
68089;SDS011;54880;50.986;6.990;2023-07-29T04:11:45;6.03;;;1.87;;
68089;SDS011;54880;50.986;6.990;2023-07-29T04:14:11;6.00;;;1.90;;
68089;SDS011;54880;50.986;6.990;2023-07-29T04:16:36;5.83;;;1.63;;
68089;SDS011;54880;50.986;6.990;2023-07-29T04:19:01;7.03;;;1.70;;
68089;SDS011;54880;50.986;6.990;2023-07-29T04:21:27;4.83;;;1.80;;
68089;SDS011;54880;50.986;6.990;2023-07-29T04:23:52;5.53;;;1.60;;
68089;SDS011;54880;50.986;6.990;2023-07-29T04:26:17;7.35;;;1.90;;
68089;SDS011;54880;50.986;6.990;2023-07-29T04:28:43;5.15;;;1.77;;
68089;SDS011;54880;50.986;6.990;2023-07-29T04:31:08;4.30;;;1.60;;
68089;SDS011;54880;50.986;6.990;2023-07-29T04:33:33;6.23;;;2.10;;
68089;SDS011;54880;50.986;6.990;2023-07-29T04:35:59;4.77;;;1.60;;
68089;SDS011;54880;50.986;6.990;2023-07-29T04:38:27;6.00;;;1.90;;
68089;SDS011;54880;50.986;6.990;2023-07-29T04:40:52;5.53;;;1.88;;
68089;SDS011;54880;50.986;6.990;2023-07-29T04:43:18;6.37;;;1.77;;
68089;SDS011;54880;50.986;6.990;2023-07-29T04:45:43;5.30;;;2.00;;
68089;SDS011;54880;50.986;6.990;2023-07-29T04:48:09;6.73;;;1.93;;
68089;SDS011;54880;50.986;6.990;2023-07-29T04:50:34;5.53;;;1.93;;
68089;SDS011;54880;50.986;6.990;2023-07-29T04:52:59;5.80;;;2.30;;
68089;SDS011;54880;50.986;6.990;2023-07-29T04:55:25;6.28;;;2.20;;
68089;SDS011;54880;50.986;6.990;2023-07-29T04:57:50;5.65;;;1.90;;
68089;SDS011;54880;50.986;6.990;2023-07-29T05:00:15;5.97;;;2.30;;
68089;SDS011;54880;50.986;6.990;2023-07-29T05:02:41;6.17;;;2.13;;
68089;SDS011;54880;50.986;6.990;2023-07-29T05:05:06;5.63;;;2.23;;
68089;SDS011;54880;50.986;6.990;2023-07-29T05:07:33;8.13;;;2.83;;
68089;SDS011;54880;50.986;6.990;2023-07-29T05:09:58;6.53;;;2.63;;
68089;SDS011;54880;50.986;6.990;2023-07-29T05:12:23;6.00;;;2.30;;
68089;SDS011;54880;50.986;6.990;2023-07-29T05:14:48;6.73;;;2.50;;
68089;SDS011;54880;50.986;6.990;2023-07-29T05:17:14;6.03;;;2.60;;
68089;SDS011;54880;50.986;6.990;2023-07-29T05:19:39;6.53;;;2.67;;
68089;SDS011;54880;50.986;6.990;2023-07-29T05:22:05;6.28;;;2.70;;
68089;SDS011;54880;50.986;6.990;2023-07-29T05:24:30;7.53;;;2.70;;
68089;SDS011;54880;50.986;6.990;2023-07-29T05:26:55;6.40;;;2.83;;
68089;SDS011;54880;50.986;6.990;2023-07-29T05:29:21;10.63;;;2.83;;
68089;SDS011;54880;50.986;6.990;2023-07-29T05:31:46;8.20;;;2.65;;
68089;SDS011;54880;50.986;6.990;2023-07-29T05:34:12;6.27;;;2.57;;
68089;SDS011;54880;50.986;6.990;2023-07-29T05:36:38;5.38;;;2.20;;
68089;SDS011;54880;50.986;6.990;2023-07-29T05:39:04;5.40;;;2.70;;
68089;SDS011;54880;50.986;6.990;2023-07-29T05:41:29;6.00;;;2.57;;
68089;SDS011;54880;50.986;6.990;2023-07-29T05:43:55;6.40;;;2.50;;
68089;SDS011;54880;50.986;6.990;2023-07-29T05:46:20;12.30;;;3.20;;
68089;SDS011;54880;50.986;6.990;2023-07-29T05:48:45;8.33;;;3.20;;
68089;SDS011;54880;50.986;6.990;2023-07-29T05:51:10;6.97;;;2.80;;
68089;SDS011;54880;50.986;6.990;2023-07-29T05:53:36;5.77;;;2.47;;
68089;SDS011;54880;50.986;6.990;2023-07-29T05:56:01;7.80;;;3.00;;
68089;SDS011;54880;50.986;6.990;2023-07-29T05:58:27;5.88;;;2.67;;
68089;SDS011;54880;50.986;6.990;2023-07-29T06:00:53;7.07;;;3.00;;
68089;SDS011;54880;50.986;6.990;2023-07-29T06:03:19;6.75;;;2.60;;
68089;SDS011;54880;50.986;6.990;2023-07-29T06:05:44;8.27;;;2.77;;
68089;SDS011;54880;50.986;6.990;2023-07-29T06:08:10;6.80;;;2.57;;
68089;SDS011;54880;50.986;6.990;2023-07-29T06:10:35;7.50;;;3.03;;
68089;SDS011;54880;50.986;6.990;2023-07-29T06:13:01;7.60;;;2.67;;
68089;SDS011;54880;50.986;6.990;2023-07-29T06:15:26;5.85;;;2.50;;
68089;SDS011;54880;50.986;6.990;2023-07-29T06:17:51;6.15;;;2.40;;
68089;SDS011;54880;50.986;6.990;2023-07-29T06:20:17;6.10;;;2.50;;
68089;SDS011;54880;50.986;6.990;2023-07-29T06:22:42;6.23;;;2.40;;
68089;SDS011;54880;50.986;6.990;2023-07-29T06:25:08;6.10;;;2.40;;
68089;SDS011;54880;50.986;6.990;2023-07-29T06:27:33;7.43;;;2.28;;
68089;SDS011;54880;50.986;6.990;2023-07-29T06:29:58;6.20;;;2.03;;
68089;SDS011;54880;50.986;6.990;2023-07-29T06:32:24;7.53;;;1.50;;
68089;SDS011;54880;50.986;6.990;2023-07-29T06:34:49;7.60;;;1.90;;
68089;SDS011;54880;50.986;6.990;2023-07-29T06:37:16;8.25;;;1.75;;
68089;SDS011;54880;50.986;6.990;2023-07-29T06:39:41;5.97;;;2.10;;
68089;SDS011;54880;50.986;6.990;2023-07-29T06:42:06;5.82;;;1.80;;
68089;SDS011;54880;50.986;6.990;2023-07-29T06:44:32;5.88;;;1.98;;
68089;SDS011;54880;50.986;6.990;2023-07-29T06:46:57;8.40;;;2.83;;
68089;SDS011;54880;50.986;6.990;2023-07-29T06:49:23;5.77;;;2.00;;
68089;SDS011;54880;50.986;6.990;2023-07-29T06:51:48;5.17;;;1.90;;
68089;SDS011;54880;50.986;6.990;2023-07-29T06:54:13;5.40;;;1.80;;
68089;SDS011;54880;50.986;6.990;2023-07-29T06:56:39;5.67;;;1.90;;
68089;SDS011;54880;50.986;6.990;2023-07-29T06:59:04;6.47;;;1.83;;
68089;SDS011;54880;50.986;6.990;2023-07-29T07:01:29;5.40;;;1.80;;
68089;SDS011;54880;50.986;6.990;2023-07-29T07:03:54;6.43;;;1.57;;
68089;SDS011;54880;50.986;6.990;2023-07-29T07:06:23;7.73;;;1.73;;
68089;SDS011;54880;50.986;6.990;2023-07-29T07:08:49;5.75;;;1.70;;
68089;SDS011;54880;50.986;6.990;2023-07-29T07:11:14;5.23;;;1.87;;
68089;SDS011;54880;50.986;6.990;2023-07-29T07:13:40;7.50;;;2.00;;
68089;SDS011;54880;50.986;6.990;2023-07-29T07:16:05;6.80;;;1.90;;
68089;SDS011;54880;50.986;6.990;2023-07-29T07:18:30;6.10;;;1.67;;
68089;SDS011;54880;50.986;6.990;2023-07-29T07:20:55;7.10;;;2.10;;
68089;SDS011;54880;50.986;6.990;2023-07-29T07:23:21;6.30;;;1.80;;
68089;SDS011;54880;50.986;6.990;2023-07-29T07:25:46;5.37;;;1.40;;
68089;SDS011;54880;50.986;6.990;2023-07-29T07:28:11;7.95;;;1.85;;
68089;SDS011;54880;50.986;6.990;2023-07-29T07:30:40;5.77;;;1.67;;
68089;SDS011;54880;50.986;6.990;2023-07-29T07:33:09;11.30;;;2.40;;
68089;SDS011;54880;50.986;6.990;2023-07-29T07:35:34;6.90;;;1.90;;
68089;SDS011;54880;50.986;6.990;2023-07-29T07:37:59;6.93;;;1.87;;
68089;SDS011;54880;50.986;6.990;2023-07-29T07:40:27;6.70;;;1.80;;
68089;SDS011;54880;50.986;6.990;2023-07-29T07:42:52;10.70;;;2.00;;
68089;SDS011;54880;50.986;6.990;2023-07-29T07:45:17;6.90;;;1.70;;
68089;SDS011;54880;50.986;6.990;2023-07-29T07:47:43;4.93;;;1.63;;
68089;SDS011;54880;50.986;6.990;2023-07-29T07:50:08;7.23;;;1.63;;
68089;SDS011;54880;50.986;6.990;2023-07-29T07:52:33;5.50;;;1.57;;
68089;SDS011;54880;50.986;6.990;2023-07-29T07:54:59;6.00;;;1.67;;
68089;SDS011;54880;50.986;6.990;2023-07-29T07:57:24;6.77;;;1.77;;
68089;SDS011;54880;50.986;6.990;2023-07-29T07:59:49;5.47;;;1.50;;
68089;SDS011;54880;50.986;6.990;2023-07-29T08:02:15;6.72;;;1.30;;
68089;SDS011;54880;50.986;6.990;2023-07-29T08:04:41;7.10;;;1.70;;
68089;SDS011;54880;50.986;6.990;2023-07-29T08:07:06;5.90;;;1.60;;
68089;SDS011;54880;50.986;6.990;2023-07-29T08:09:31;6.87;;;1.67;;
68089;SDS011;54880;50.986;6.990;2023-07-29T08:11:56;4.87;;;1.50;;
68089;SDS011;54880;50.986;6.990;2023-07-29T08:14:22;4.80;;;1.23;;
68089;SDS011;54880;50.986;6.990;2023-07-29T08:16:47;6.50;;;1.40;;
68089;SDS011;54880;50.986;6.990;2023-07-29T08:19:12;4.83;;;1.40;;
68089;SDS011;54880;50.986;6.990;2023-07-29T08:21:37;5.43;;;1.67;;
68089;SDS011;54880;50.986;6.990;2023-07-29T08:24:03;4.43;;;1.40;;
68089;SDS011;54880;50.986;6.990;2023-07-29T08:26:28;5.32;;;1.67;;
68089;SDS011;54880;50.986;6.990;2023-07-29T08:28:53;5.20;;;1.40;;
68089;SDS011;54880;50.986;6.990;2023-07-29T08:31:19;6.57;;;1.50;;
68089;SDS011;54880;50.986;6.990;2023-07-29T08:33:44;5.57;;;1.40;;
68089;SDS011;54880;50.986;6.990;2023-07-29T08:36:09;5.17;;;1.30;;
68089;SDS011;54880;50.986;6.990;2023-07-29T08:38:34;5.67;;;1.30;;
68089;SDS011;54880;50.986;6.990;2023-07-29T08:43:34;5.30;;;1.60;;
68089;SDS011;54880;50.986;6.990;2023-07-29T08:46:01;6.68;;;1.40;;
68089;SDS011;54880;50.986;6.990;2023-07-29T08:48:36;6.53;;;1.50;;
68089;SDS011;54880;50.986;6.990;2023-07-29T08:51:04;4.30;;;1.30;;
68089;SDS011;54880;50.986;6.990;2023-07-29T08:53:30;4.85;;;1.50;;
68089;SDS011;54880;50.986;6.990;2023-07-29T08:55:56;5.80;;;1.50;;
68089;SDS011;54880;50.986;6.990;2023-07-29T08:58:21;4.73;;;1.30;;
68089;SDS011;54880;50.986;6.990;2023-07-29T09:00:47;5.23;;;1.63;;
68089;SDS011;54880;50.986;6.990;2023-07-29T09:03:12;5.82;;;1.27;;
68089;SDS011;54880;50.986;6.990;2023-07-29T09:05:38;4.90;;;1.33;;
68089;SDS011;54880;50.986;6.990;2023-07-29T09:08:03;5.23;;;1.40;;
68089;SDS011;54880;50.986;6.990;2023-07-29T09:10:29;4.20;;;1.30;;
68089;SDS011;54880;50.986;6.990;2023-07-29T09:12:54;6.73;;;1.20;;
68089;SDS011;54880;50.986;6.990;2023-07-29T09:15:27;7.97;;;1.50;;
68089;SDS011;54880;50.986;6.990;2023-07-29T09:17:52;5.25;;;1.50;;
68089;SDS011;54880;50.986;6.990;2023-07-29T09:20:22;5.05;;;1.50;;
68089;SDS011;54880;50.986;6.990;2023-07-29T09:22:48;8.02;;;1.70;;
68089;SDS011;54880;50.986;6.990;2023-07-29T09:25:13;4.57;;;1.60;;
68089;SDS011;54880;50.986;6.990;2023-07-29T09:27:41;4.65;;;1.50;;
68089;SDS011;54880;50.986;6.990;2023-07-29T09:30:07;4.93;;;1.50;;
68089;SDS011;54880;50.986;6.990;2023-07-29T09:32:40;8.52;;;1.45;;
68089;SDS011;54880;50.986;6.990;2023-07-29T09:35:09;4.20;;;1.20;;
68089;SDS011;54880;50.986;6.990;2023-07-29T09:37:35;4.22;;;1.30;;
68089;SDS011;54880;50.986;6.990;2023-07-29T09:40:00;5.20;;;1.40;;
68089;SDS011;54880;50.986;6.990;2023-07-29T09:42:26;4.77;;;1.40;;
68089;SDS011;54880;50.986;6.990;2023-07-29T09:44:51;5.20;;;1.60;;
68089;SDS011;54880;50.986;6.990;2023-07-29T09:47:20;5.23;;;1.50;;
68089;SDS011;54880;50.986;6.990;2023-07-29T09:49:46;5.03;;;1.33;;
68089;SDS011;54880;50.986;6.990;2023-07-29T09:52:12;5.17;;;1.20;;
68089;SDS011;54880;50.986;6.990;2023-07-29T09:54:39;7.03;;;1.70;;
68089;SDS011;54880;50.986;6.990;2023-07-29T09:57:04;5.30;;;1.50;;
68089;SDS011;54880;50.986;6.990;2023-07-29T09:59:35;4.97;;;1.67;;
68089;SDS011;54880;50.986;6.990;2023-07-29T10:02:00;5.10;;;1.30;;
68089;SDS011;54880;50.986;6.990;2023-07-29T10:04:26;4.23;;;1.30;;
68089;SDS011;54880;50.986;6.990;2023-07-29T10:06:52;5.15;;;1.70;;
68089;SDS011;54880;50.986;6.990;2023-07-29T10:09:17;6.90;;;1.40;;
68089;SDS011;54880;50.986;6.990;2023-07-29T10:11:43;5.82;;;1.60;;
68089;SDS011;54880;50.986;6.990;2023-07-29T10:14:08;5.57;;;1.90;;
68089;SDS011;54880;50.986;6.990;2023-07-29T10:16:34;6.77;;;1.63;;
68089;SDS011;54880;50.986;6.990;2023-07-29T10:19:01;4.90;;;1.53;;
68089;SDS011;54880;50.986;6.990;2023-07-29T10:21:26;5.63;;;1.75;;
68089;SDS011;54880;50.986;6.990;2023-07-29T10:23:53;4.90;;;1.50;;
68089;SDS011;54880;50.986;6.990;2023-07-29T10:26:19;7.13;;;1.50;;
68089;SDS011;54880;50.986;6.990;2023-07-29T10:28:46;5.63;;;1.77;;
68089;SDS011;54880;50.986;6.990;2023-07-29T10:31:12;4.50;;;1.40;;
68089;SDS011;54880;50.986;6.990;2023-07-29T10:33:38;5.20;;;1.80;;
68089;SDS011;54880;50.986;6.990;2023-07-29T10:36:03;4.33;;;1.40;;
68089;SDS011;54880;50.986;6.990;2023-07-29T10:38:29;4.53;;;1.63;;
68089;SDS011;54880;50.986;6.990;2023-07-29T10:40:55;4.63;;;1.40;;
68089;SDS011;54880;50.986;6.990;2023-07-29T10:43:25;4.90;;;1.50;;
68089;SDS011;54880;50.986;6.990;2023-07-29T10:45:51;5.95;;;1.70;;
68089;SDS011;54880;50.986;6.990;2023-07-29T10:53:41;4.95;;;1.55;;
68089;SDS011;54880;50.986;6.990;2023-07-29T10:56:06;4.77;;;1.70;;
68089;SDS011;54880;50.986;6.990;2023-07-29T10:58:32;5.60;;;1.60;;
68089;SDS011;54880;50.986;6.990;2023-07-29T11:00:57;4.63;;;1.50;;
68089;SDS011;54880;50.986;6.990;2023-07-29T11:03:22;6.90;;;2.00;;
68089;SDS011;54880;50.986;6.990;2023-07-29T11:05:50;4.97;;;1.65;;
68089;SDS011;54880;50.986;6.990;2023-07-29T11:08:23;5.30;;;1.80;;
68089;SDS011;54880;50.986;6.990;2023-07-29T11:11:01;5.10;;;1.63;;
68089;SDS011;54880;50.986;6.990;2023-07-29T11:13:27;4.73;;;1.50;;
68089;SDS011;54880;50.986;6.990;2023-07-29T11:15:53;5.20;;;1.50;;
68089;SDS011;54880;50.986;6.990;2023-07-29T11:18:18;5.15;;;1.50;;
68089;SDS011;54880;50.986;6.990;2023-07-29T11:20:45;4.97;;;1.40;;
68089;SDS011;54880;50.986;6.990;2023-07-29T11:23:10;5.50;;;1.70;;
68089;SDS011;54880;50.986;6.990;2023-07-29T11:25:36;4.80;;;1.63;;
68089;SDS011;54880;50.986;6.990;2023-07-29T11:28:01;6.78;;;1.65;;
68089;SDS011;54880;50.986;6.990;2023-07-29T11:30:26;7.32;;;1.80;;
68089;SDS011;54880;50.986;6.990;2023-07-29T11:32:53;8.17;;;1.90;;
68089;SDS011;54880;50.986;6.990;2023-07-29T11:35:18;6.30;;;1.70;;
68089;SDS011;54880;50.986;6.990;2023-07-29T11:37:44;5.80;;;2.00;;
68089;SDS011;54880;50.986;6.990;2023-07-29T11:40:13;5.10;;;1.80;;
68089;SDS011;54880;50.986;6.990;2023-07-29T11:42:38;5.07;;;1.40;;
68089;SDS011;54880;50.986;6.990;2023-07-29T11:45:04;9.02;;;1.80;;
68089;SDS011;54880;50.986;6.990;2023-07-29T11:47:31;7.47;;;1.90;;
68089;SDS011;54880;50.986;6.990;2023-07-29T11:50:00;6.65;;;2.13;;
68089;SDS011;54880;50.986;6.990;2023-07-29T11:52:25;5.93;;;1.80;;
68089;SDS011;54880;50.986;6.990;2023-07-29T11:54:52;5.33;;;1.80;;
68089;SDS011;54880;50.986;6.990;2023-07-29T11:57:17;5.72;;;1.90;;
68089;SDS011;54880;50.986;6.990;2023-07-29T11:59:46;8.85;;;1.90;;
68089;SDS011;54880;50.986;6.990;2023-07-29T12:02:17;5.75;;;1.90;;
68089;SDS011;54880;50.986;6.990;2023-07-29T12:04:44;6.00;;;2.08;;
68089;SDS011;54880;50.986;6.990;2023-07-29T12:07:11;6.15;;;1.85;;
68089;SDS011;54880;50.986;6.990;2023-07-29T12:09:37;5.07;;;1.75;;
68089;SDS011;54880;50.986;6.990;2023-07-29T12:12:03;5.90;;;2.33;;
68089;SDS011;54880;50.986;6.990;2023-07-29T12:14:28;4.93;;;1.70;;
68089;SDS011;54880;50.986;6.990;2023-07-29T12:16:54;5.97;;;1.63;;
68089;SDS011;54880;50.986;6.990;2023-07-29T12:19:19;5.20;;;1.60;;
68089;SDS011;54880;50.986;6.990;2023-07-29T12:21:44;5.20;;;1.40;;
68089;SDS011;54880;50.986;6.990;2023-07-29T12:24:12;6.13;;;1.60;;
68089;SDS011;54880;50.986;6.990;2023-07-29T12:26:37;5.28;;;1.60;;
68089;SDS011;54880;50.986;6.990;2023-07-29T12:29:21;4.70;;;1.40;;
68089;SDS011;54880;50.986;6.990;2023-07-29T12:31:46;4.82;;;1.63;;
68089;SDS011;54880;50.986;6.990;2023-07-29T12:34:18;4.70;;;1.60;;
68089;SDS011;54880;50.986;6.990;2023-07-29T12:36:48;4.90;;;1.60;;
68089;SDS011;54880;50.986;6.990;2023-07-29T12:41:48;4.97;;;1.60;;
68089;SDS011;54880;50.986;6.990;2023-07-29T12:44:14;7.18;;;1.80;;
68089;SDS011;54880;50.986;6.990;2023-07-29T12:46:40;4.67;;;1.40;;
68089;SDS011;54880;50.986;6.990;2023-07-29T12:49:05;5.90;;;1.63;;
68089;SDS011;54880;50.986;6.990;2023-07-29T12:51:31;5.25;;;1.40;;
68089;SDS011;54880;50.986;6.990;2023-07-29T12:53:56;5.87;;;1.70;;
68089;SDS011;54880;50.986;6.990;2023-07-29T12:56:21;4.80;;;1.50;;
68089;SDS011;54880;50.986;6.990;2023-07-29T12:58:47;5.77;;;1.67;;
68089;SDS011;54880;50.986;6.990;2023-07-29T13:01:13;5.60;;;1.57;;
68089;SDS011;54880;50.986;6.990;2023-07-29T13:03:42;5.78;;;1.80;;
68089;SDS011;54880;50.986;6.990;2023-07-29T13:06:08;4.97;;;1.43;;
68089;SDS011;54880;50.986;6.990;2023-07-29T13:08:33;6.80;;;1.50;;
68089;SDS011;54880;50.986;6.990;2023-07-29T13:10:58;4.70;;;1.50;;
68089;SDS011;54880;50.986;6.990;2023-07-29T13:13:23;5.40;;;1.33;;
68089;SDS011;54880;50.986;6.990;2023-07-29T13:15:48;5.17;;;1.70;;
68089;SDS011;54880;50.986;6.990;2023-07-29T13:18:14;4.57;;;1.53;;
68089;SDS011;54880;50.986;6.990;2023-07-29T13:20:39;4.60;;;1.50;;
68089;SDS011;54880;50.986;6.990;2023-07-29T13:23:04;5.67;;;1.57;;
68089;SDS011;54880;50.986;6.990;2023-07-29T13:25:29;5.13;;;1.80;;
68089;SDS011;54880;50.986;6.990;2023-07-29T13:27:55;5.00;;;1.60;;
68089;SDS011;54880;50.986;6.990;2023-07-29T13:30:20;5.60;;;1.67;;
68089;SDS011;54880;50.986;6.990;2023-07-29T13:32:45;5.00;;;1.70;;
68089;SDS011;54880;50.986;6.990;2023-07-29T13:35:10;6.10;;;1.67;;
68089;SDS011;54880;50.986;6.990;2023-07-29T13:37:36;4.70;;;1.50;;
68089;SDS011;54880;50.986;6.990;2023-07-29T13:40:01;6.83;;;1.63;;
68089;SDS011;54880;50.986;6.990;2023-07-29T13:42:26;4.93;;;1.80;;
68089;SDS011;54880;50.986;6.990;2023-07-29T13:44:51;6.30;;;1.60;;
68089;SDS011;54880;50.986;6.990;2023-07-29T13:47:17;4.85;;;1.58;;
68089;SDS011;54880;50.986;6.990;2023-07-29T13:49:42;5.82;;;1.77;;
68089;SDS011;54880;50.986;6.990;2023-07-29T13:52:07;5.40;;;1.63;;
68089;SDS011;54880;50.986;6.990;2023-07-29T13:54:33;5.90;;;1.85;;
68089;SDS011;54880;50.986;6.990;2023-07-29T13:56:58;7.83;;;2.20;;
68089;SDS011;54880;50.986;6.990;2023-07-29T13:59:23;6.77;;;2.10;;
68089;SDS011;54880;50.986;6.990;2023-07-29T14:01:48;5.80;;;2.10;;
68089;SDS011;54880;50.986;6.990;2023-07-29T14:04:14;6.70;;;1.73;;
68089;SDS011;54880;50.986;6.990;2023-07-29T14:06:39;5.57;;;1.80;;
68089;SDS011;54880;50.986;6.990;2023-07-29T14:09:04;8.23;;;2.10;;
68089;SDS011;54880;50.986;6.990;2023-07-29T14:11:29;5.97;;;1.93;;
68089;SDS011;54880;50.986;6.990;2023-07-29T14:13:55;8.13;;;2.27;;
68089;SDS011;54880;50.986;6.990;2023-07-29T14:16:20;5.07;;;1.87;;
68089;SDS011;54880;50.986;6.990;2023-07-29T14:18:45;7.53;;;2.00;;
68089;SDS011;54880;50.986;6.990;2023-07-29T14:21:11;7.00;;;2.50;;
68089;SDS011;54880;50.986;6.990;2023-07-29T14:23:36;6.10;;;1.90;;
68089;SDS011;54880;50.986;6.990;2023-07-29T14:26:01;5.80;;;1.80;;
68089;SDS011;54880;50.986;6.990;2023-07-29T14:28:26;6.30;;;2.20;;
68089;SDS011;54880;50.986;6.990;2023-07-29T14:30:51;5.88;;;1.80;;
68089;SDS011;54880;50.986;6.990;2023-07-29T14:33:17;5.30;;;1.90;;
68089;SDS011;54880;50.986;6.990;2023-07-29T14:35:42;5.30;;;1.75;;
68089;SDS011;54880;50.986;6.990;2023-07-29T14:38:09;5.00;;;1.80;;
68089;SDS011;54880;50.986;6.990;2023-07-29T14:40:35;5.03;;;1.77;;
68089;SDS011;54880;50.986;6.990;2023-07-29T14:43:00;6.15;;;1.75;;
68089;SDS011;54880;50.986;6.990;2023-07-29T14:45:25;5.25;;;1.85;;
68089;SDS011;54880;50.986;6.990;2023-07-29T14:47:51;6.40;;;2.03;;
68089;SDS011;54880;50.986;6.990;2023-07-29T14:50:16;4.97;;;1.73;;
68089;SDS011;54880;50.986;6.990;2023-07-29T14:52:41;6.07;;;2.10;;